sensor_id;sensor_type;location;lat;lon;timestamp;P1;durP1;ratioP1;P2;durP2;ratioP2
76846;SDS011;65813;49.546;8.644;2023-05-10T03:47:45;6.50;;;1.80;;
76846;SDS011;65813;49.546;8.644;2023-05-10T03:51:46;4.00;;;1.63;;
76846;SDS011;65813;49.546;8.644;2023-05-10T03:55:46;6.90;;;2.67;;
76846;SDS011;65813;49.546;8.644;2023-05-10T03:59:46;2.30;;;1.20;;
76846;SDS011;65813;49.546;8.644;2023-05-10T04:03:46;3.23;;;1.53;;
76846;SDS011;65813;49.546;8.644;2023-05-10T04:07:47;3.40;;;1.70;;
76846;SDS011;65813;49.546;8.644;2023-05-10T04:11:49;2.00;;;1.20;;
76846;SDS011;65813;49.546;8.644;2023-05-10T04:15:49;3.33;;;1.50;;
76846;SDS011;65813;49.546;8.644;2023-05-10T04:19:49;3.50;;;1.70;;
76846;SDS011;65813;49.546;8.644;2023-05-10T04:23:52;3.10;;;1.40;;
76846;SDS011;65813;49.546;8.644;2023-05-10T04:27:53;2.67;;;1.43;;
76846;SDS011;65813;49.546;8.644;2023-05-10T04:31:54;3.00;;;1.60;;
76846;SDS011;65813;49.546;8.644;2023-05-10T04:35:55;3.30;;;1.50;;
76846;SDS011;65813;49.546;8.644;2023-05-10T04:39:55;2.47;;;1.37;;
76846;SDS011;65813;49.546;8.644;2023-05-10T04:43:55;2.87;;;1.43;;
76846;SDS011;65813;49.546;8.644;2023-05-10T04:47:56;3.47;;;1.67;;
76846;SDS011;65813;49.546;8.644;2023-05-10T04:51:56;3.60;;;1.70;;
76846;SDS011;65813;49.546;8.644;2023-05-10T04:55:56;4.63;;;1.67;;
76846;SDS011;65813;49.546;8.644;2023-05-10T04:59:57;2.83;;;1.63;;
76846;SDS011;65813;49.546;8.644;2023-05-10T05:03:57;3.80;;;2.10;;
76846;SDS011;65813;49.546;8.644;2023-05-10T05:07:57;4.20;;;2.00;;
76846;SDS011;65813;49.546;8.644;2023-05-10T05:11:58;3.63;;;2.30;;
76846;SDS011;65813;49.546;8.644;2023-05-10T05:15:59;3.57;;;2.00;;
76846;SDS011;65813;49.546;8.644;2023-05-10T05:20:03;3.65;;;1.92;;
76846;SDS011;65813;49.546;8.644;2023-05-10T05:24:04;4.47;;;2.05;;
76846;SDS011;65813;49.546;8.644;2023-05-10T05:28:05;3.53;;;2.05;;
76846;SDS011;65813;49.546;8.644;2023-05-10T05:32:05;3.80;;;2.10;;
76846;SDS011;65813;49.546;8.644;2023-05-10T05:36:08;3.30;;;1.80;;
76846;SDS011;65813;49.546;8.644;2023-05-10T05:40:11;4.80;;;2.20;;
76846;SDS011;65813;49.546;8.644;2023-05-10T05:44:12;6.57;;;2.45;;
76846;SDS011;65813;49.546;8.644;2023-05-10T05:48:13;3.73;;;2.23;;
76846;SDS011;65813;49.546;8.644;2023-05-10T05:52:13;3.77;;;2.40;;
76846;SDS011;65813;49.546;8.644;2023-05-10T05:56:13;4.97;;;2.63;;
76846;SDS011;65813;49.546;8.644;2023-05-10T06:00:14;5.20;;;3.00;;
76846;SDS011;65813;49.546;8.644;2023-05-10T06:04:15;4.15;;;2.83;;
76846;SDS011;65813;49.546;8.644;2023-05-10T06:08:16;5.32;;;2.92;;
76846;SDS011;65813;49.546;8.644;2023-05-10T06:12:16;4.83;;;3.10;;
76846;SDS011;65813;49.546;8.644;2023-05-10T06:16:16;8.37;;;2.83;;
76846;SDS011;65813;49.546;8.644;2023-05-10T06:20:17;4.65;;;2.88;;
76846;SDS011;65813;49.546;8.644;2023-05-10T06:24:18;5.13;;;2.70;;
76846;SDS011;65813;49.546;8.644;2023-05-10T06:28:18;6.13;;;3.20;;
76846;SDS011;65813;49.546;8.644;2023-05-10T06:32:18;5.20;;;2.77;;
76846;SDS011;65813;49.546;8.644;2023-05-10T06:36:18;4.23;;;3.07;;
76846;SDS011;65813;49.546;8.644;2023-05-10T06:40:19;5.40;;;3.40;;
76846;SDS011;65813;49.546;8.644;2023-05-10T06:44:19;4.13;;;2.67;;
76846;SDS011;65813;49.546;8.644;2023-05-10T06:48:20;4.60;;;3.00;;
76846;SDS011;65813;49.546;8.644;2023-05-10T06:52:20;5.70;;;2.93;;
76846;SDS011;65813;49.546;8.644;2023-05-10T06:56:20;4.88;;;2.90;;
76846;SDS011;65813;49.546;8.644;2023-05-10T07:00:21;5.85;;;3.75;;
76846;SDS011;65813;49.546;8.644;2023-05-10T07:04:21;8.20;;;3.80;;
76846;SDS011;65813;49.546;8.644;2023-05-10T07:08:22;7.03;;;3.90;;
76846;SDS011;65813;49.546;8.644;2023-05-10T07:12:22;5.57;;;3.53;;
76846;SDS011;65813;49.546;8.644;2023-05-10T07:16:23;5.38;;;3.20;;
76846;SDS011;65813;49.546;8.644;2023-05-10T07:20:23;8.40;;;4.00;;
76846;SDS011;65813;49.546;8.644;2023-05-10T07:24:23;7.10;;;4.60;;
76846;SDS011;65813;49.546;8.644;2023-05-10T07:28:24;6.10;;;3.73;;
76846;SDS011;65813;49.546;8.644;2023-05-10T07:32:24;7.20;;;3.60;;
76846;SDS011;65813;49.546;8.644;2023-05-10T07:36:24;6.50;;;3.73;;
76846;SDS011;65813;49.546;8.644;2023-05-10T07:40:25;5.63;;;3.43;;
76846;SDS011;65813;49.546;8.644;2023-05-10T07:44:25;6.90;;;3.90;;
76846;SDS011;65813;49.546;8.644;2023-05-10T07:48:26;4.27;;;2.10;;
76846;SDS011;65813;49.546;8.644;2023-05-10T07:52:26;6.03;;;2.90;;
76846;SDS011;65813;49.546;8.644;2023-05-10T07:56:27;5.45;;;3.10;;
76846;SDS011;65813;49.546;8.644;2023-05-10T08:00:29;4.32;;;2.78;;
76846;SDS011;65813;49.546;8.644;2023-05-10T08:04:29;4.70;;;2.43;;
76846;SDS011;65813;49.546;8.644;2023-05-10T08:08:30;6.33;;;2.80;;
76846;SDS011;65813;49.546;8.644;2023-05-10T08:12:30;3.80;;;2.40;;
76846;SDS011;65813;49.546;8.644;2023-05-10T08:16:30;4.10;;;2.50;;
76846;SDS011;65813;49.546;8.644;2023-05-10T08:20:32;5.45;;;2.10;;
76846;SDS011;65813;49.546;8.644;2023-05-10T08:24:32;4.07;;;2.20;;
76846;SDS011;65813;49.546;8.644;2023-05-10T08:28:35;4.75;;;1.73;;
76846;SDS011;65813;49.546;8.644;2023-05-10T08:32:36;5.23;;;2.30;;
76846;SDS011;65813;49.546;8.644;2023-05-10T08:36:37;4.13;;;2.40;;
76846;SDS011;65813;49.546;8.644;2023-05-10T08:40:38;4.80;;;2.50;;
76846;SDS011;65813;49.546;8.644;2023-05-10T08:44:41;3.70;;;2.15;;
76846;SDS011;65813;49.546;8.644;2023-05-10T08:48:43;5.18;;;2.13;;
76846;SDS011;65813;49.546;8.644;2023-05-10T08:52:47;4.10;;;2.17;;
76846;SDS011;65813;49.546;8.644;2023-05-10T08:56:51;4.68;;;2.00;;
76846;SDS011;65813;49.546;8.644;2023-05-10T09:00:53;4.55;;;2.17;;
76846;SDS011;65813;49.546;8.644;2023-05-10T09:04:53;4.63;;;2.30;;
76846;SDS011;65813;49.546;8.644;2023-05-10T09:08:53;4.00;;;2.00;;
76846;SDS011;65813;49.546;8.644;2023-05-10T09:12:56;2.78;;;1.60;;
76846;SDS011;65813;49.546;8.644;2023-05-10T09:16:57;3.40;;;1.73;;
76846;SDS011;65813;49.546;8.644;2023-05-10T09:20:57;2.90;;;1.40;;
76846;SDS011;65813;49.546;8.644;2023-05-10T09:25:05;6.33;;;2.23;;
76846;SDS011;65813;49.546;8.644;2023-05-10T09:29:10;8.52;;;2.00;;
76846;SDS011;65813;49.546;8.644;2023-05-10T09:33:11;8.45;;;2.83;;
76846;SDS011;65813;49.546;8.644;2023-05-10T09:37:11;4.83;;;2.17;;
76846;SDS011;65813;49.546;8.644;2023-05-10T09:41:19;4.68;;;1.77;;
76846;SDS011;65813;49.546;8.644;2023-05-10T09:45:23;4.57;;;1.90;;
76846;SDS011;65813;49.546;8.644;2023-05-10T09:49:25;3.33;;;1.77;;
76846;SDS011;65813;49.546;8.644;2023-05-10T09:53:25;4.50;;;2.13;;
76846;SDS011;65813;49.546;8.644;2023-05-10T09:57:25;3.27;;;1.90;;
76846;SDS011;65813;49.546;8.644;2023-05-10T10:01:26;6.07;;;2.40;;
76846;SDS011;65813;49.546;8.644;2023-05-10T10:05:33;3.77;;;2.20;;
76846;SDS011;65813;49.546;8.644;2023-05-10T10:09:35;5.70;;;2.10;;
76846;SDS011;65813;49.546;8.644;2023-05-10T10:13:35;3.37;;;1.87;;
76846;SDS011;65813;49.546;8.644;2023-05-10T10:17:36;4.57;;;1.60;;
76846;SDS011;65813;49.546;8.644;2023-05-10T10:21:39;3.53;;;1.50;;
76846;SDS011;65813;49.546;8.644;2023-05-10T10:25:39;9.75;;;2.20;;
76846;SDS011;65813;49.546;8.644;2023-05-10T10:29:58;2.90;;;1.52;;
76846;SDS011;65813;49.546;8.644;2023-05-10T10:34:04;4.57;;;1.50;;
76846;SDS011;65813;49.546;8.644;2023-05-10T10:38:07;4.38;;;1.80;;
76846;SDS011;65813;49.546;8.644;2023-05-10T10:42:08;5.03;;;1.88;;
76846;SDS011;65813;49.546;8.644;2023-05-10T10:46:18;3.22;;;1.70;;
76846;SDS011;65813;49.546;8.644;2023-05-10T10:50:19;5.30;;;2.35;;
76846;SDS011;65813;49.546;8.644;2023-05-10T10:54:26;4.03;;;2.17;;
76846;SDS011;65813;49.546;8.644;2023-05-10T10:58:28;4.07;;;2.38;;
76846;SDS011;65813;49.546;8.644;2023-05-10T11:06:41;4.75;;;2.10;;
76846;SDS011;65813;49.546;8.644;2023-05-10T11:10:49;4.65;;;2.47;;
76846;SDS011;65813;49.546;8.644;2023-05-10T11:14:59;3.88;;;2.28;;
76846;SDS011;65813;49.546;8.644;2023-05-10T11:19:04;4.87;;;2.00;;
76846;SDS011;65813;49.546;8.644;2023-05-10T11:23:13;4.15;;;1.90;;
76846;SDS011;65813;49.546;8.644;2023-05-10T11:27:15;3.58;;;1.83;;
76846;SDS011;65813;49.546;8.644;2023-05-10T11:31:16;3.40;;;1.80;;
76846;SDS011;65813;49.546;8.644;2023-05-10T11:35:18;5.13;;;2.08;;
76846;SDS011;65813;49.546;8.644;2023-05-10T11:39:18;4.63;;;1.53;;
76846;SDS011;65813;49.546;8.644;2023-05-10T11:43:19;3.38;;;1.60;;
76846;SDS011;65813;49.546;8.644;2023-05-10T11:47:23;3.05;;;1.60;;
76846;SDS011;65813;49.546;8.644;2023-05-10T11:51:24;2.67;;;1.38;;
76846;SDS011;65813;49.546;8.644;2023-05-10T11:55:25;2.50;;;1.20;;
76846;SDS011;65813;49.546;8.644;2023-05-10T11:59:25;3.15;;;1.20;;
76846;SDS011;65813;49.546;8.644;2023-05-10T12:03:26;4.13;;;1.27;;
76846;SDS011;65813;49.546;8.644;2023-05-10T12:07:27;2.58;;;1.20;;
76846;SDS011;65813;49.546;8.644;2023-05-10T12:11:28;3.70;;;1.13;;
76846;SDS011;65813;49.546;8.644;2023-05-10T12:15:28;2.70;;;1.13;;
76846;SDS011;65813;49.546;8.644;2023-05-10T12:19:36;4.40;;;1.50;;
76846;SDS011;65813;49.546;8.644;2023-05-10T12:23:37;2.58;;;1.20;;
76846;SDS011;65813;49.546;8.644;2023-05-10T12:27:38;3.75;;;1.67;;
76846;SDS011;65813;49.546;8.644;2023-05-10T12:31:49;2.33;;;0.90;;
76846;SDS011;65813;49.546;8.644;2023-05-10T12:35:53;2.72;;;1.10;;
76846;SDS011;65813;49.546;8.644;2023-05-10T12:39:54;2.90;;;1.15;;
76846;SDS011;65813;49.546;8.644;2023-05-10T12:43:54;3.03;;;1.10;;
76846;SDS011;65813;49.546;8.644;2023-05-10T12:47:55;3.80;;;1.10;;
76846;SDS011;65813;49.546;8.644;2023-05-10T12:51:55;2.30;;;1.20;;
76846;SDS011;65813;49.546;8.644;2023-05-10T12:55:55;2.27;;;1.10;;
76846;SDS011;65813;49.546;8.644;2023-05-10T12:59:56;2.05;;;1.10;;
76846;SDS011;65813;49.546;8.644;2023-05-10T13:03:56;2.07;;;1.00;;
76846;SDS011;65813;49.546;8.644;2023-05-10T13:07:57;5.30;;;2.67;;
76846;SDS011;65813;49.546;8.644;2023-05-10T13:11:57;3.47;;;1.50;;
76846;SDS011;65813;49.546;8.644;2023-05-10T13:16:00;5.38;;;1.48;;
76846;SDS011;65813;49.546;8.644;2023-05-10T13:20:01;4.53;;;1.30;;
76846;SDS011;65813;49.546;8.644;2023-05-10T13:24:01;4.60;;;1.40;;
76846;SDS011;65813;49.546;8.644;2023-05-10T13:28:01;3.53;;;1.30;;
76846;SDS011;65813;49.546;8.644;2023-05-10T13:32:02;3.75;;;1.20;;
76846;SDS011;65813;49.546;8.644;2023-05-10T13:36:02;2.40;;;1.20;;
76846;SDS011;65813;49.546;8.644;2023-05-10T13:40:03;2.88;;;1.30;;
76846;SDS011;65813;49.546;8.644;2023-05-10T13:44:04;3.70;;;1.17;;
76846;SDS011;65813;49.546;8.644;2023-05-10T13:48:04;2.30;;;1.20;;
76846;SDS011;65813;49.546;8.644;2023-05-10T13:52:05;2.90;;;1.10;;
76846;SDS011;65813;49.546;8.644;2023-05-10T13:56:06;4.53;;;1.27;;
76846;SDS011;65813;49.546;8.644;2023-05-10T14:00:07;5.63;;;1.30;;
76846;SDS011;65813;49.546;8.644;2023-05-10T14:04:08;3.42;;;1.02;;
76846;SDS011;65813;49.546;8.644;2023-05-10T14:08:11;1.77;;;0.93;;
76846;SDS011;65813;49.546;8.644;2023-05-10T14:12:13;2.53;;;0.93;;
76846;SDS011;65813;49.546;8.644;2023-05-10T14:16:14;3.42;;;1.00;;
76846;SDS011;65813;49.546;8.644;2023-05-10T14:20:14;2.58;;;0.90;;
76846;SDS011;65813;49.546;8.644;2023-05-10T14:24:15;2.80;;;0.90;;
76846;SDS011;65813;49.546;8.644;2023-05-10T14:28:15;2.43;;;1.10;;
76846;SDS011;65813;49.546;8.644;2023-05-10T14:32:17;3.85;;;1.20;;
76846;SDS011;65813;49.546;8.644;2023-05-10T14:36:17;1.90;;;1.00;;
76846;SDS011;65813;49.546;8.644;2023-05-10T14:40:18;4.10;;;1.10;;
76846;SDS011;65813;49.546;8.644;2023-05-10T14:44:18;2.53;;;0.90;;
76846;SDS011;65813;49.546;8.644;2023-05-10T14:48:19;2.95;;;1.05;;
76846;SDS011;65813;49.546;8.644;2023-05-10T14:52:21;1.80;;;0.90;;
76846;SDS011;65813;49.546;8.644;2023-05-10T14:56:21;17.77;;;4.00;;
76846;SDS011;65813;49.546;8.644;2023-05-10T15:00:22;4.20;;;1.02;;
76846;SDS011;65813;49.546;8.644;2023-05-10T15:04:22;4.00;;;1.17;;
76846;SDS011;65813;49.546;8.644;2023-05-10T15:08:22;3.00;;;0.80;;
76846;SDS011;65813;49.546;8.644;2023-05-10T15:12:24;1.80;;;0.80;;
76846;SDS011;65813;49.546;8.644;2023-05-10T15:16:24;1.90;;;0.90;;
76846;SDS011;65813;49.546;8.644;2023-05-10T15:20:25;1.15;;;0.65;;
76846;SDS011;65813;49.546;8.644;2023-05-10T15:24:25;1.83;;;0.82;;
76846;SDS011;65813;49.546;8.644;2023-05-10T15:28:26;1.95;;;0.90;;
76846;SDS011;65813;49.546;8.644;2023-05-10T15:32:26;2.33;;;0.77;;
76846;SDS011;65813;49.546;8.644;2023-05-10T15:36:27;1.05;;;0.70;;
76846;SDS011;65813;49.546;8.644;2023-05-10T15:40:27;2.20;;;0.90;;
76846;SDS011;65813;49.546;8.644;2023-05-10T15:44:27;1.27;;;0.70;;
76846;SDS011;65813;49.546;8.644;2023-05-10T15:48:28;3.17;;;0.88;;
76846;SDS011;65813;49.546;8.644;2023-05-10T15:52:31;1.02;;;0.70;;
76846;SDS011;65813;49.546;8.644;2023-05-10T15:56:31;5.80;;;1.17;;
76846;SDS011;65813;49.546;8.644;2023-05-10T16:00:32;23.25;;;6.88;;
76846;SDS011;65813;49.546;8.644;2023-05-10T16:04:33;3.17;;;1.40;;
76846;SDS011;65813;49.546;8.644;2023-05-10T16:08:33;2.40;;;0.90;;
76846;SDS011;65813;49.546;8.644;2023-05-10T16:12:37;2.72;;;0.90;;
76846;SDS011;65813;49.546;8.644;2023-05-10T16:16:38;2.88;;;0.82;;
76846;SDS011;65813;49.546;8.644;2023-05-10T16:20:39;1.40;;;0.85;;
76846;SDS011;65813;49.546;8.644;2023-05-10T16:24:39;1.10;;;0.88;;
76846;SDS011;65813;49.546;8.644;2023-05-10T16:28:40;2.00;;;0.80;;
76846;SDS011;65813;49.546;8.644;2023-05-10T16:32:40;3.67;;;0.85;;
76846;SDS011;65813;49.546;8.644;2023-05-10T16:36:40;1.92;;;0.75;;
76846;SDS011;65813;49.546;8.644;2023-05-10T16:40:41;1.65;;;0.60;;
76846;SDS011;65813;49.546;8.644;2023-05-10T16:44:41;0.97;;;0.63;;
76846;SDS011;65813;49.546;8.644;2023-05-10T16:48:41;1.50;;;0.73;;
76846;SDS011;65813;49.546;8.644;2023-05-10T16:52:42;4.00;;;0.90;;
76846;SDS011;65813;49.546;8.644;2023-05-10T16:56:42;1.50;;;0.80;;
76846;SDS011;65813;49.546;8.644;2023-05-10T17:00:42;1.52;;;0.88;;
76846;SDS011;65813;49.546;8.644;2023-05-10T17:04:43;2.10;;;0.80;;
76846;SDS011;65813;49.546;8.644;2023-05-10T17:08:43;2.10;;;0.83;;
76846;SDS011;65813;49.546;8.644;2023-05-10T17:12:44;2.20;;;0.90;;
76846;SDS011;65813;49.546;8.644;2023-05-10T17:16:44;1.38;;;0.68;;
76846;SDS011;65813;49.546;8.644;2023-05-10T17:20:45;1.83;;;0.80;;
76846;SDS011;65813;49.546;8.644;2023-05-10T17:24:45;1.50;;;0.80;;
76846;SDS011;65813;49.546;8.644;2023-05-10T17:28:45;1.85;;;0.80;;
76846;SDS011;65813;49.546;8.644;2023-05-10T17:32:46;1.43;;;0.70;;
76846;SDS011;65813;49.546;8.644;2023-05-10T17:36:46;2.07;;;0.83;;
76846;SDS011;65813;49.546;8.644;2023-05-10T17:40:46;2.43;;;1.03;;
76846;SDS011;65813;49.546;8.644;2023-05-10T17:44:47;1.20;;;0.70;;
76846;SDS011;65813;49.546;8.644;2023-05-10T17:48:47;1.90;;;0.80;;
76846;SDS011;65813;49.546;8.644;2023-05-10T17:52:47;2.03;;;0.90;;
76846;SDS011;65813;49.546;8.644;2023-05-10T17:56:48;1.23;;;0.80;;
76846;SDS011;65813;49.546;8.644;2023-05-10T18:00:48;2.93;;;0.90;;
76846;SDS011;65813;49.546;8.644;2023-05-10T18:04:48;1.67;;;0.80;;
76846;SDS011;65813;49.546;8.644;2023-05-10T18:08:49;3.67;;;1.17;;
76846;SDS011;65813;49.546;8.644;2023-05-10T18:12:49;2.73;;;1.00;;
76846;SDS011;65813;49.546;8.644;2023-05-10T18:16:50;2.92;;;1.00;;
76846;SDS011;65813;49.546;8.644;2023-05-10T18:20:50;3.03;;;0.77;;
76846;SDS011;65813;49.546;8.644;2023-05-10T18:28:55;2.92;;;0.95;;
76846;SDS011;65813;49.546;8.644;2023-05-10T18:32:56;1.98;;;1.00;;
76846;SDS011;65813;49.546;8.644;2023-05-10T18:36:56;3.13;;;1.17;;
76846;SDS011;65813;49.546;8.644;2023-05-10T18:40:57;3.15;;;0.98;;
76846;SDS011;65813;49.546;8.644;2023-05-10T18:44:57;2.17;;;1.00;;
76846;SDS011;65813;49.546;8.644;2023-05-10T18:48:58;2.78;;;1.20;;
76846;SDS011;65813;49.546;8.644;2023-05-10T18:52:58;1.50;;;0.90;;
76846;SDS011;65813;49.546;8.644;2023-05-10T18:56:58;1.50;;;1.00;;
76846;SDS011;65813;49.546;8.644;2023-05-10T19:00:59;1.30;;;0.90;;
76846;SDS011;65813;49.546;8.644;2023-05-10T19:04:59;3.90;;;1.10;;
76846;SDS011;65813;49.546;8.644;2023-05-10T19:08:59;2.13;;;0.82;;
76846;SDS011;65813;49.546;8.644;2023-05-10T19:13:00;2.67;;;1.00;;
76846;SDS011;65813;49.546;8.644;2023-05-10T19:17:00;2.00;;;0.90;;
76846;SDS011;65813;49.546;8.644;2023-05-10T19:21:00;2.10;;;1.13;;
76846;SDS011;65813;49.546;8.644;2023-05-10T19:25:03;2.42;;;1.10;;
76846;SDS011;65813;49.546;8.644;2023-05-10T19:29:04;2.30;;;1.13;;
76846;SDS011;65813;49.546;8.644;2023-05-10T19:33:05;3.03;;;1.00;;
76846;SDS011;65813;49.546;8.644;2023-05-10T19:37:05;1.80;;;1.00;;
76846;SDS011;65813;49.546;8.644;2023-05-10T19:41:05;1.80;;;1.00;;
76846;SDS011;65813;49.546;8.644;2023-05-10T19:45:06;1.70;;;0.93;;
76846;SDS011;65813;49.546;8.644;2023-05-10T19:49:07;1.83;;;0.95;;
76846;SDS011;65813;49.546;8.644;2023-05-10T19:53:08;2.20;;;0.90;;
76846;SDS011;65813;49.546;8.644;2023-05-10T19:57:08;2.13;;;1.00;;
76846;SDS011;65813;49.546;8.644;2023-05-10T20:01:08;1.10;;;0.80;;
76846;SDS011;65813;49.546;8.644;2023-05-10T20:05:09;3.67;;;0.90;;
76846;SDS011;65813;49.546;8.644;2023-05-10T20:09:09;1.27;;;0.73;;
76846;SDS011;65813;49.546;8.644;2023-05-10T20:13:09;2.20;;;0.87;;
76846;SDS011;65813;49.546;8.644;2023-05-10T20:17:10;2.37;;;0.87;;
76846;SDS011;65813;49.546;8.644;2023-05-10T20:21:10;1.83;;;0.90;;
76846;SDS011;65813;49.546;8.644;2023-05-10T20:25:11;2.15;;;0.90;;
76846;SDS011;65813;49.546;8.644;2023-05-10T20:29:12;2.75;;;0.75;;
76846;SDS011;65813;49.546;8.644;2023-05-10T20:33:12;2.17;;;0.93;;
76846;SDS011;65813;49.546;8.644;2023-05-10T20:37:14;2.00;;;1.00;;
76846;SDS011;65813;49.546;8.644;2023-05-10T20:41:16;2.00;;;1.10;;
76846;SDS011;65813;49.546;8.644;2023-05-10T20:45:16;1.53;;;0.87;;
76846;SDS011;65813;49.546;8.644;2023-05-10T20:49:17;1.37;;;0.83;;
76846;SDS011;65813;49.546;8.644;2023-05-10T20:53:18;2.20;;;1.00;;
76846;SDS011;65813;49.546;8.644;2023-05-10T20:57:19;1.93;;;0.90;;
76846;SDS011;65813;49.546;8.644;2023-05-10T21:01:19;3.47;;;0.90;;
